sensor_id;sensor_type;location;lat;lon;timestamp;temperature;humidity
3194;DHT22;1608;50.860;13.466;2023-03-15T00:00:32;4.40;99.90
3194;DHT22;1608;50.860;13.466;2023-03-15T00:03:00;4.50;99.90
3194;DHT22;1608;50.860;13.466;2023-03-15T00:05:28;4.70;99.90
3194;DHT22;1608;50.860;13.466;2023-03-15T00:07:56;4.80;99.90
3194;DHT22;1608;50.860;13.466;2023-03-15T00:10:23;5.00;99.90
3194;DHT22;1608;50.860;13.466;2023-03-15T00:12:50;5.10;99.90
3194;DHT22;1608;50.860;13.466;2023-03-15T00:15:17;5.30;99.90
3194;DHT22;1608;50.860;13.466;2023-03-15T00:17:43;5.30;99.90
3194;DHT22;1608;50.860;13.466;2023-03-15T00:20:13;5.40;99.90
3194;DHT22;1608;50.860;13.466;2023-03-15T00:22:40;5.50;99.90
3194;DHT22;1608;50.860;13.466;2023-03-15T00:25:08;5.60;99.90
3194;DHT22;1608;50.860;13.466;2023-03-15T00:27:35;5.60;99.90
3194;DHT22;1608;50.860;13.466;2023-03-15T00:30:02;5.50;99.90
3194;DHT22;1608;50.860;13.466;2023-03-15T00:32:29;5.40;99.90
3194;DHT22;1608;50.860;13.466;2023-03-15T00:34:56;5.20;99.90
3194;DHT22;1608;50.860;13.466;2023-03-15T00:37:24;5.00;99.90
3194;DHT22;1608;50.860;13.466;2023-03-15T00:39:51;4.80;99.90
3194;DHT22;1608;50.860;13.466;2023-03-15T00:42:20;4.80;99.90
3194;DHT22;1608;50.860;13.466;2023-03-15T00:44:52;4.50;99.90
3194;DHT22;1608;50.860;13.466;2023-03-15T00:47:19;4.40;99.90
3194;DHT22;1608;50.860;13.466;2023-03-15T00:49:46;4.30;99.90
3194;DHT22;1608;50.860;13.466;2023-03-15T00:52:15;4.30;99.90
3194;DHT22;1608;50.860;13.466;2023-03-15T00:54:43;4.20;99.90
3194;DHT22;1608;50.860;13.466;2023-03-15T00:57:10;4.20;99.90
3194;DHT22;1608;50.860;13.466;2023-03-15T00:59:36;4.10;99.90
3194;DHT22;1608;50.860;13.466;2023-03-15T01:02:04;4.10;99.90
3194;DHT22;1608;50.860;13.466;2023-03-15T01:04:31;4.10;99.90
3194;DHT22;1608;50.860;13.466;2023-03-15T01:06:58;4.20;99.90
3194;DHT22;1608;50.860;13.466;2023-03-15T01:09:25;4.20;99.90
3194;DHT22;1608;50.860;13.466;2023-03-15T01:11:53;4.50;99.90
3194;DHT22;1608;50.860;13.466;2023-03-15T01:14:20;4.30;99.90
3194;DHT22;1608;50.860;13.466;2023-03-15T01:16:46;4.40;99.90
3194;DHT22;1608;50.860;13.466;2023-03-15T01:19:14;4.40;99.90
3194;DHT22;1608;50.860;13.466;2023-03-15T01:21:41;4.40;99.90
3194;DHT22;1608;50.860;13.466;2023-03-15T01:24:11;4.40;99.90
3194;DHT22;1608;50.860;13.466;2023-03-15T01:26:38;4.30;99.90
3194;DHT22;1608;50.860;13.466;2023-03-15T01:29:06;4.30;99.90
3194;DHT22;1608;50.860;13.466;2023-03-15T01:31:33;4.30;99.90
3194;DHT22;1608;50.860;13.466;2023-03-15T01:34:00;4.20;99.90
3194;DHT22;1608;50.860;13.466;2023-03-15T01:36:27;4.30;99.90
3194;DHT22;1608;50.860;13.466;2023-03-15T01:38:54;4.20;99.90
3194;DHT22;1608;50.860;13.466;2023-03-15T01:41:21;4.20;99.90
3194;DHT22;1608;50.860;13.466;2023-03-15T01:43:50;4.20;99.90
3194;DHT22;1608;50.860;13.466;2023-03-15T01:46:22;4.20;99.90
3194;DHT22;1608;50.860;13.466;2023-03-15T01:48:56;4.20;99.90
3194;DHT22;1608;50.860;13.466;2023-03-15T01:51:29;4.10;99.90
3194;DHT22;1608;50.860;13.466;2023-03-15T01:53:59;4.10;99.90
3194;DHT22;1608;50.860;13.466;2023-03-15T01:56:28;4.10;99.90
3194;DHT22;1608;50.860;13.466;2023-03-15T01:58:57;4.00;99.90
3194;DHT22;1608;50.860;13.466;2023-03-15T02:01:26;4.00;99.90
3194;DHT22;1608;50.860;13.466;2023-03-15T02:03:56;3.90;99.90
3194;DHT22;1608;50.860;13.466;2023-03-15T02:06:26;3.90;99.90
3194;DHT22;1608;50.860;13.466;2023-03-15T02:08:55;3.80;99.90
3194;DHT22;1608;50.860;13.466;2023-03-15T02:11:24;3.80;99.90
3194;DHT22;1608;50.860;13.466;2023-03-15T02:13:53;3.80;99.90
3194;DHT22;1608;50.860;13.466;2023-03-15T02:16:23;3.70;99.90
3194;DHT22;1608;50.860;13.466;2023-03-15T02:18:51;3.70;99.90
3194;DHT22;1608;50.860;13.466;2023-03-15T02:21:32;3.80;99.90
3194;DHT22;1608;50.860;13.466;2023-03-15T02:24:08;3.80;99.90
3194;DHT22;1608;50.860;13.466;2023-03-15T02:26:43;3.80;99.90
3194;DHT22;1608;50.860;13.466;2023-03-15T02:29:12;3.80;99.90
3194;DHT22;1608;50.860;13.466;2023-03-15T02:31:39;3.80;99.90
3194;DHT22;1608;50.860;13.466;2023-03-15T02:34:06;3.80;99.90
3194;DHT22;1608;50.860;13.466;2023-03-15T02:36:35;3.70;99.90
3194;DHT22;1608;50.860;13.466;2023-03-15T02:39:13;3.70;99.90
3194;DHT22;1608;50.860;13.466;2023-03-15T02:41:43;3.70;99.90
3194;DHT22;1608;50.860;13.466;2023-03-15T02:44:14;3.70;99.90
3194;DHT22;1608;50.860;13.466;2023-03-15T02:46:43;3.60;99.90
3194;DHT22;1608;50.860;13.466;2023-03-15T02:49:12;3.60;99.90
3194;DHT22;1608;50.860;13.466;2023-03-15T02:51:41;3.60;99.90
3194;DHT22;1608;50.860;13.466;2023-03-15T02:54:08;3.70;99.90
3194;DHT22;1608;50.860;13.466;2023-03-15T02:56:35;3.70;99.90
3194;DHT22;1608;50.860;13.466;2023-03-15T02:59:02;3.70;99.90
3194;DHT22;1608;50.860;13.466;2023-03-15T03:01:30;3.70;99.90
3194;DHT22;1608;50.860;13.466;2023-03-15T03:03:57;3.70;99.90
3194;DHT22;1608;50.860;13.466;2023-03-15T03:06:24;3.70;99.90
3194;DHT22;1608;50.860;13.466;2023-03-15T03:08:50;3.70;99.90
3194;DHT22;1608;50.860;13.466;2023-03-15T03:11:17;3.70;99.90
3194;DHT22;1608;50.860;13.466;2023-03-15T03:13:44;3.60;99.90
3194;DHT22;1608;50.860;13.466;2023-03-15T03:16:11;3.60;99.90
3194;DHT22;1608;50.860;13.466;2023-03-15T03:18:39;3.60;99.90
3194;DHT22;1608;50.860;13.466;2023-03-15T03:21:07;3.60;99.90
3194;DHT22;1608;50.860;13.466;2023-03-15T03:23:34;3.60;99.90
3194;DHT22;1608;50.860;13.466;2023-03-15T03:26:02;3.60;99.90
3194;DHT22;1608;50.860;13.466;2023-03-15T03:28:31;3.60;99.90
3194;DHT22;1608;50.860;13.466;2023-03-15T03:30:58;4.10;99.90
3194;DHT22;1608;50.860;13.466;2023-03-15T03:33:25;3.40;99.90
3194;DHT22;1608;50.860;13.466;2023-03-15T03:35:59;3.40;99.90
3194;DHT22;1608;50.860;13.466;2023-03-15T03:38:26;3.30;99.90
3194;DHT22;1608;50.860;13.466;2023-03-15T03:40:53;3.20;99.90
3194;DHT22;1608;50.860;13.466;2023-03-15T03:43:20;3.20;99.90
3194;DHT22;1608;50.860;13.466;2023-03-15T03:45:46;3.20;99.90
3194;DHT22;1608;50.860;13.466;2023-03-15T03:48:13;3.10;99.90
3194;DHT22;1608;50.860;13.466;2023-03-15T03:50:40;3.10;99.90
3194;DHT22;1608;50.860;13.466;2023-03-15T03:53:08;3.00;99.90
3194;DHT22;1608;50.860;13.466;2023-03-15T03:55:37;3.00;99.90
3194;DHT22;1608;50.860;13.466;2023-03-15T03:58:04;3.00;99.90
3194;DHT22;1608;50.860;13.466;2023-03-15T04:00:30;3.00;99.90
3194;DHT22;1608;50.860;13.466;2023-03-15T04:02:57;3.00;99.90
3194;DHT22;1608;50.860;13.466;2023-03-15T04:05:24;3.00;99.90
3194;DHT22;1608;50.860;13.466;2023-03-15T04:07:51;2.90;99.90
3194;DHT22;1608;50.860;13.466;2023-03-15T04:10:19;2.90;99.90
3194;DHT22;1608;50.860;13.466;2023-03-15T04:12:52;2.90;99.90
3194;DHT22;1608;50.860;13.466;2023-03-15T04:15:19;2.90;99.90
3194;DHT22;1608;50.860;13.466;2023-03-15T04:17:47;2.90;99.90
3194;DHT22;1608;50.860;13.466;2023-03-15T04:20:13;2.80;99.90
3194;DHT22;1608;50.860;13.466;2023-03-15T04:22:42;2.90;99.90
3194;DHT22;1608;50.860;13.466;2023-03-15T04:25:14;2.80;99.90
3194;DHT22;1608;50.860;13.466;2023-03-15T04:27:42;2.80;99.90
3194;DHT22;1608;50.860;13.466;2023-03-15T04:30:10;2.80;99.90
3194;DHT22;1608;50.860;13.466;2023-03-15T04:32:37;2.70;99.90
3194;DHT22;1608;50.860;13.466;2023-03-15T04:35:07;2.60;99.90
3194;DHT22;1608;50.860;13.466;2023-03-15T04:37:34;2.60;99.90
3194;DHT22;1608;50.860;13.466;2023-03-15T04:40:01;2.60;99.90
3194;DHT22;1608;50.860;13.466;2023-03-15T04:42:29;2.60;99.90
3194;DHT22;1608;50.860;13.466;2023-03-15T04:44:57;2.60;99.90
3194;DHT22;1608;50.860;13.466;2023-03-15T04:47:24;2.50;99.90
3194;DHT22;1608;50.860;13.466;2023-03-15T04:49:51;2.60;99.90
3194;DHT22;1608;50.860;13.466;2023-03-15T04:52:17;2.50;99.90
3194;DHT22;1608;50.860;13.466;2023-03-15T04:54:44;2.50;99.90
3194;DHT22;1608;50.860;13.466;2023-03-15T04:57:11;2.50;99.90
3194;DHT22;1608;50.860;13.466;2023-03-15T04:59:38;2.50;99.90
3194;DHT22;1608;50.860;13.466;2023-03-15T05:02:06;2.50;99.90
3194;DHT22;1608;50.860;13.466;2023-03-15T05:04:33;2.50;99.90
3194;DHT22;1608;50.860;13.466;2023-03-15T05:07:00;2.50;99.90
3194;DHT22;1608;50.860;13.466;2023-03-15T05:09:27;2.50;99.90
3194;DHT22;1608;50.860;13.466;2023-03-15T05:11:53;2.40;99.90
3194;DHT22;1608;50.860;13.466;2023-03-15T05:14:20;2.40;99.90
3194;DHT22;1608;50.860;13.466;2023-03-15T05:16:47;2.40;99.90
3194;DHT22;1608;50.860;13.466;2023-03-15T05:19:18;2.40;99.90
3194;DHT22;1608;50.860;13.466;2023-03-15T05:21:46;2.40;99.90
3194;DHT22;1608;50.860;13.466;2023-03-15T05:24:13;2.40;99.90
3194;DHT22;1608;50.860;13.466;2023-03-15T05:26:39;2.40;99.90
3194;DHT22;1608;50.860;13.466;2023-03-15T05:29:06;2.40;99.90
3194;DHT22;1608;50.860;13.466;2023-03-15T05:31:33;2.40;99.90
3194;DHT22;1608;50.860;13.466;2023-03-15T05:34:01;2.40;99.90
3194;DHT22;1608;50.860;13.466;2023-03-15T05:36:30;2.40;99.90
3194;DHT22;1608;50.860;13.466;2023-03-15T05:38:57;2.40;99.90
3194;DHT22;1608;50.860;13.466;2023-03-15T05:41:24;2.40;99.90
3194;DHT22;1608;50.860;13.466;2023-03-15T05:43:51;2.40;99.90
3194;DHT22;1608;50.860;13.466;2023-03-15T05:46:18;2.50;99.90
3194;DHT22;1608;50.860;13.466;2023-03-15T05:48:47;2.50;99.90
3194;DHT22;1608;50.860;13.466;2023-03-15T05:51:14;2.50;99.90
3194;DHT22;1608;50.860;13.466;2023-03-15T05:53:42;2.50;99.90
3194;DHT22;1608;50.860;13.466;2023-03-15T05:56:09;2.50;99.90
3194;DHT22;1608;50.860;13.466;2023-03-15T05:58:36;2.60;99.90
3194;DHT22;1608;50.860;13.466;2023-03-15T06:01:04;2.60;99.90
3194;DHT22;1608;50.860;13.466;2023-03-15T06:03:30;2.60;99.90
3194;DHT22;1608;50.860;13.466;2023-03-15T06:05:57;2.60;99.90
3194;DHT22;1608;50.860;13.466;2023-03-15T06:08:24;2.60;99.90
3194;DHT22;1608;50.860;13.466;2023-03-15T06:10:52;2.70;99.90
3194;DHT22;1608;50.860;13.466;2023-03-15T06:13:19;2.80;99.90
3194;DHT22;1608;50.860;13.466;2023-03-15T06:15:46;2.80;99.90
3194;DHT22;1608;50.860;13.466;2023-03-15T06:18:13;2.90;99.90
3194;DHT22;1608;50.860;13.466;2023-03-15T06:20:42;2.90;99.90
3194;DHT22;1608;50.860;13.466;2023-03-15T06:23:09;2.90;99.90
3194;DHT22;1608;50.860;13.466;2023-03-15T06:25:36;2.30;99.90
3194;DHT22;1608;50.860;13.466;2023-03-15T06:28:04;3.20;99.90
3194;DHT22;1608;50.860;13.466;2023-03-15T06:30:31;3.20;99.90
3194;DHT22;1608;50.860;13.466;2023-03-15T06:32:58;3.20;99.90
3194;DHT22;1608;50.860;13.466;2023-03-15T06:35:25;3.30;99.90
3194;DHT22;1608;50.860;13.466;2023-03-15T06:37:52;3.40;99.90
3194;DHT22;1608;50.860;13.466;2023-03-15T06:40:19;3.50;99.90
3194;DHT22;1608;50.860;13.466;2023-03-15T06:42:46;3.50;99.90
3194;DHT22;1608;50.860;13.466;2023-03-15T06:45:14;3.40;99.90
3194;DHT22;1608;50.860;13.466;2023-03-15T06:47:42;3.60;99.90
3194;DHT22;1608;50.860;13.466;2023-03-15T06:50:10;3.60;99.90
3194;DHT22;1608;50.860;13.466;2023-03-15T06:52:37;3.60;99.90
3194;DHT22;1608;50.860;13.466;2023-03-15T06:55:04;3.80;99.90
3194;DHT22;1608;50.860;13.466;2023-03-15T06:57:31;3.80;99.90
3194;DHT22;1608;50.860;13.466;2023-03-15T06:59:58;3.90;99.90
3194;DHT22;1608;50.860;13.466;2023-03-15T07:02:26;4.00;99.90
3194;DHT22;1608;50.860;13.466;2023-03-15T07:04:58;4.10;99.90
3194;DHT22;1608;50.860;13.466;2023-03-15T07:07:25;4.30;99.90
3194;DHT22;1608;50.860;13.466;2023-03-15T07:09:52;4.50;99.90
3194;DHT22;1608;50.860;13.466;2023-03-15T07:12:19;4.90;99.90
3194;DHT22;1608;50.860;13.466;2023-03-15T07:14:46;5.80;99.90
3194;DHT22;1608;50.860;13.466;2023-03-15T07:17:14;7.20;99.90
3194;DHT22;1608;50.860;13.466;2023-03-15T07:19:42;8.70;99.90
3194;DHT22;1608;50.860;13.466;2023-03-15T07:22:09;10.10;99.90
3194;DHT22;1608;50.860;13.466;2023-03-15T07:24:36;11.40;99.90
3194;DHT22;1608;50.860;13.466;2023-03-15T07:27:03;12.40;99.90
3194;DHT22;1608;50.860;13.466;2023-03-15T07:29:30;13.10;96.00
3194;DHT22;1608;50.860;13.466;2023-03-15T07:31:57;13.70;93.60
3194;DHT22;1608;50.860;13.466;2023-03-15T07:34:25;14.10;89.90
3194;DHT22;1608;50.860;13.466;2023-03-15T07:36:53;14.50;87.00
3194;DHT22;1608;50.860;13.466;2023-03-15T07:39:20;15.00;84.90
3194;DHT22;1608;50.860;13.466;2023-03-15T07:41:47;15.30;79.80
3194;DHT22;1608;50.860;13.466;2023-03-15T07:44:14;15.60;77.80
3194;DHT22;1608;50.860;13.466;2023-03-15T07:46:41;15.90;75.20
3194;DHT22;1608;50.860;13.466;2023-03-15T07:49:08;16.20;72.80
3194;DHT22;1608;50.860;13.466;2023-03-15T07:51:35;16.50;69.50
3194;DHT22;1608;50.860;13.466;2023-03-15T07:54:03;16.50;67.50
3194;DHT22;1608;50.860;13.466;2023-03-15T07:56:30;16.70;66.60
3194;DHT22;1608;50.860;13.466;2023-03-15T07:58:56;16.80;64.10
3194;DHT22;1608;50.860;13.466;2023-03-15T08:01:23;16.80;61.60
3194;DHT22;1608;50.860;13.466;2023-03-15T08:03:50;16.80;62.70
3194;DHT22;1608;50.860;13.466;2023-03-15T08:06:17;16.90;60.50
3194;DHT22;1608;50.860;13.466;2023-03-15T08:08:44;17.10;60.00
3194;DHT22;1608;50.860;13.466;2023-03-15T08:11:12;17.20;58.20
3194;DHT22;1608;50.860;13.466;2023-03-15T08:13:39;17.10;58.20
3194;DHT22;1608;50.860;13.466;2023-03-15T08:16:06;17.20;57.10
3194;DHT22;1608;50.860;13.466;2023-03-15T08:18:33;17.40;55.10
3194;DHT22;1608;50.860;13.466;2023-03-15T08:21:00;17.40;54.30
3194;DHT22;1608;50.860;13.466;2023-03-15T08:23:27;17.20;53.20
3194;DHT22;1608;50.860;13.466;2023-03-15T08:25:54;17.10;54.20
3194;DHT22;1608;50.860;13.466;2023-03-15T08:28:22;16.60;53.20
3194;DHT22;1608;50.860;13.466;2023-03-15T08:30:49;15.70;54.10
3194;DHT22;1608;50.860;13.466;2023-03-15T08:33:16;14.60;55.80
3194;DHT22;1608;50.860;13.466;2023-03-15T08:35:43;13.90;59.00
3194;DHT22;1608;50.860;13.466;2023-03-15T08:38:10;13.30;62.40
3194;DHT22;1608;50.860;13.466;2023-03-15T08:40:36;13.00;64.50
3194;DHT22;1608;50.860;13.466;2023-03-15T08:43:05;12.50;65.80
3194;DHT22;1608;50.860;13.466;2023-03-15T08:45:33;11.70;68.40
3194;DHT22;1608;50.860;13.466;2023-03-15T08:48:00;10.90;72.10
3194;DHT22;1608;50.860;13.466;2023-03-15T08:50:27;10.40;75.30
3194;DHT22;1608;50.860;13.466;2023-03-15T08:52:56;10.10;77.40
3194;DHT22;1608;50.860;13.466;2023-03-15T08:55:23;9.80;80.10
3194;DHT22;1608;50.860;13.466;2023-03-15T08:57:49;9.60;81.80
3194;DHT22;1608;50.860;13.466;2023-03-15T09:00:17;9.50;84.10
3194;DHT22;1608;50.860;13.466;2023-03-15T09:02:49;9.20;85.80
3194;DHT22;1608;50.860;13.466;2023-03-15T09:05:16;8.40;87.40
3194;DHT22;1608;50.860;13.466;2023-03-15T09:07:44;9.00;88.90
3194;DHT22;1608;50.860;13.466;2023-03-15T09:10:13;8.90;89.80
3194;DHT22;1608;50.860;13.466;2023-03-15T09:12:40;9.20;90.60
3194;DHT22;1608;50.860;13.466;2023-03-15T09:15:08;9.40;91.20
3194;DHT22;1608;50.860;13.466;2023-03-15T09:17:35;9.60;90.80
3194;DHT22;1608;50.860;13.466;2023-03-15T09:20:04;9.60;90.70
3194;DHT22;1608;50.860;13.466;2023-03-15T09:22:38;9.50;90.50
3194;DHT22;1608;50.860;13.466;2023-03-15T09:25:06;9.20;90.50
3194;DHT22;1608;50.860;13.466;2023-03-15T09:27:33;9.20;90.80
3194;DHT22;1608;50.860;13.466;2023-03-15T09:30:00;9.00;91.00
3194;DHT22;1608;50.860;13.466;2023-03-15T09:32:27;8.70;91.30
3194;DHT22;1608;50.860;13.466;2023-03-15T09:34:54;8.40;91.90
3194;DHT22;1608;50.860;13.466;2023-03-15T09:37:22;8.10;92.10
3194;DHT22;1608;50.860;13.466;2023-03-15T09:39:50;7.90;92.90
3194;DHT22;1608;50.860;13.466;2023-03-15T09:42:21;7.90;93.40
3194;DHT22;1608;50.860;13.466;2023-03-15T09:44:54;7.80;93.60
3194;DHT22;1608;50.860;13.466;2023-03-15T09:47:31;7.90;93.80
3194;DHT22;1608;50.860;13.466;2023-03-15T09:50:04;8.00;93.90
3194;DHT22;1608;50.860;13.466;2023-03-15T09:52:38;7.90;93.90
3194;DHT22;1608;50.860;13.466;2023-03-15T09:55:12;9.50;95.90
3194;DHT22;1608;50.860;13.466;2023-03-15T09:57:43;7.80;95.20
3194;DHT22;1608;50.860;13.466;2023-03-15T10:00:13;7.90;95.30
3194;DHT22;1608;50.860;13.466;2023-03-15T10:02:45;8.00;95.40
3194;DHT22;1608;50.860;13.466;2023-03-15T10:05:17;8.00;95.00
3194;DHT22;1608;50.860;13.466;2023-03-15T10:07:46;8.00;95.20
3194;DHT22;1608;50.860;13.466;2023-03-15T10:10:17;7.90;95.40
3194;DHT22;1608;50.860;13.466;2023-03-15T10:12:50;7.90;95.80
3194;DHT22;1608;50.860;13.466;2023-03-15T10:15:28;8.10;96.50
3194;DHT22;1608;50.860;13.466;2023-03-15T10:18:12;8.20;96.60
3194;DHT22;1608;50.860;13.466;2023-03-15T10:20:44;8.40;96.30
3194;DHT22;1608;50.860;13.466;2023-03-15T10:23:15;8.50;96.00
3194;DHT22;1608;50.860;13.466;2023-03-15T10:25:45;8.70;96.10
3194;DHT22;1608;50.860;13.466;2023-03-15T10:28:23;8.80;95.50
3194;DHT22;1608;50.860;13.466;2023-03-15T10:30:50;8.90;94.80
3194;DHT22;1608;50.860;13.466;2023-03-15T10:33:25;8.90;94.60
3194;DHT22;1608;50.860;13.466;2023-03-15T10:35:53;8.80;94.80
3194;DHT22;1608;50.860;13.466;2023-03-15T10:38:24;8.80;95.20
3194;DHT22;1608;50.860;13.466;2023-03-15T10:40:52;8.80;94.90
3194;DHT22;1608;50.860;13.466;2023-03-15T10:43:21;8.70;95.20
3194;DHT22;1608;50.860;13.466;2023-03-15T10:46:00;8.50;95.20
3194;DHT22;1608;50.860;13.466;2023-03-15T10:48:28;8.50;95.40
3194;DHT22;1608;50.860;13.466;2023-03-15T10:50:56;8.50;96.10
3194;DHT22;1608;50.860;13.466;2023-03-15T10:53:24;8.50;95.90
3194;DHT22;1608;50.860;13.466;2023-03-15T10:55:58;8.40;95.30
3194;DHT22;1608;50.860;13.466;2023-03-15T10:58:27;8.30;96.00
3194;DHT22;1608;50.860;13.466;2023-03-15T11:00:59;8.40;95.70
3194;DHT22;1608;50.860;13.466;2023-03-15T11:03:27;8.50;95.70
3194;DHT22;1608;50.860;13.466;2023-03-15T11:05:56;8.70;95.90
3194;DHT22;1608;50.860;13.466;2023-03-15T11:08:35;8.70;95.20
3194;DHT22;1608;50.860;13.466;2023-03-15T11:11:02;8.80;94.80
3194;DHT22;1608;50.860;13.466;2023-03-15T11:13:31;8.90;95.10
3194;DHT22;1608;50.860;13.466;2023-03-15T11:16:00;8.90;94.70
3194;DHT22;1608;50.860;13.466;2023-03-15T11:18:31;8.90;94.40
3194;DHT22;1608;50.860;13.466;2023-03-15T11:21:01;8.80;95.10
3194;DHT22;1608;50.860;13.466;2023-03-15T11:23:34;8.90;95.80
3194;DHT22;1608;50.860;13.466;2023-03-15T11:26:02;9.20;95.60
3194;DHT22;1608;50.860;13.466;2023-03-15T11:28:31;9.40;95.50
3194;DHT22;1608;50.860;13.466;2023-03-15T11:30:59;9.50;95.00
3194;DHT22;1608;50.860;13.466;2023-03-15T11:33:42;9.50;94.30
3194;DHT22;1608;50.860;13.466;2023-03-15T11:36:14;9.60;93.80
3194;DHT22;1608;50.860;13.466;2023-03-15T11:38:44;9.50;93.90
3194;DHT22;1608;50.860;13.466;2023-03-15T11:41:18;9.40;94.30
3194;DHT22;1608;50.860;13.466;2023-03-15T11:43:55;9.30;94.40
3194;DHT22;1608;50.860;13.466;2023-03-15T11:46:28;9.20;93.90
3194;DHT22;1608;50.860;13.466;2023-03-15T11:49:01;8.90;93.90
3194;DHT22;1608;50.860;13.466;2023-03-15T11:51:32;8.80;94.60
3194;DHT22;1608;50.860;13.466;2023-03-15T11:54:08;8.70;94.70
3194;DHT22;1608;50.860;13.466;2023-03-15T11:56:52;8.70;94.70
3194;DHT22;1608;50.860;13.466;2023-03-15T11:59:27;8.70;94.30
3194;DHT22;1608;50.860;13.466;2023-03-15T12:01:56;8.70;94.30
3194;DHT22;1608;50.860;13.466;2023-03-15T12:04:50;8.70;94.70
3194;DHT22;1608;50.860;13.466;2023-03-15T12:07:37;9.00;94.80
3194;DHT22;1608;50.860;13.466;2023-03-15T12:10:31;9.20;94.30
3194;DHT22;1608;50.860;13.466;2023-03-15T12:13:05;9.30;93.70
3194;DHT22;1608;50.860;13.466;2023-03-15T12:15:47;9.20;93.70
3194;DHT22;1608;50.860;13.466;2023-03-15T12:18:26;9.20;93.90
3194;DHT22;1608;50.860;13.466;2023-03-15T12:21:05;9.30;94.60
3194;DHT22;1608;50.860;13.466;2023-03-15T12:23:39;9.20;94.50
3194;DHT22;1608;50.860;13.466;2023-03-15T12:26:15;9.10;93.50
3194;DHT22;1608;50.860;13.466;2023-03-15T12:28:51;8.90;93.90
3194;DHT22;1608;50.860;13.466;2023-03-15T12:31:19;8.80;94.20
3194;DHT22;1608;50.860;13.466;2023-03-15T12:33:48;8.70;94.00
3194;DHT22;1608;50.860;13.466;2023-03-15T12:36:20;8.80;93.80
3194;DHT22;1608;50.860;13.466;2023-03-15T12:39:00;8.90;93.70
3194;DHT22;1608;50.860;13.466;2023-03-15T12:41:36;9.10;93.90
3194;DHT22;1608;50.860;13.466;2023-03-15T12:44:24;9.50;94.00
3194;DHT22;1608;50.860;13.466;2023-03-15T12:46:53;9.90;93.90
3194;DHT22;1608;50.860;13.466;2023-03-15T12:49:32;10.20;93.90
3194;DHT22;1608;50.860;13.466;2023-03-15T12:52:01;10.40;93.30
3194;DHT22;1608;50.860;13.466;2023-03-15T12:54:33;10.20;92.80
3194;DHT22;1608;50.860;13.466;2023-03-15T12:57:05;9.40;93.00
3194;DHT22;1608;50.860;13.466;2023-03-15T12:59:36;8.60;95.20
3194;DHT22;1608;50.860;13.466;2023-03-15T13:02:24;7.90;96.80
3194;DHT22;1608;50.860;13.466;2023-03-15T13:04:59;7.40;99.30
3194;DHT22;1608;50.860;13.466;2023-03-15T13:07:35;7.20;99.90
3194;DHT22;1608;50.860;13.466;2023-03-15T13:16:26;7.00;99.90
3194;DHT22;1608;50.860;13.466;2023-03-15T13:19:01;6.90;99.90
3194;DHT22;1608;50.860;13.466;2023-03-15T13:21:34;6.70;99.90
3194;DHT22;1608;50.860;13.466;2023-03-15T13:24:09;6.70;99.90
3194;DHT22;1608;50.860;13.466;2023-03-15T13:26:51;6.60;99.90
3194;DHT22;1608;50.860;13.466;2023-03-15T13:29:27;6.40;99.90
3194;DHT22;1608;50.860;13.466;2023-03-15T13:32:05;6.60;99.90
3194;DHT22;1608;50.860;13.466;2023-03-15T13:34:34;6.80;99.90
3194;DHT22;1608;50.860;13.466;2023-03-15T13:37:01;7.10;99.90
3194;DHT22;1608;50.860;13.466;2023-03-15T13:39:30;7.30;99.90
3194;DHT22;1608;50.860;13.466;2023-03-15T13:41:58;7.50;99.90
3194;DHT22;1608;50.860;13.466;2023-03-15T13:44:27;7.60;99.90
3194;DHT22;1608;50.860;13.466;2023-03-15T13:46:55;7.70;99.90
3194;DHT22;1608;50.860;13.466;2023-03-15T13:49:22;7.80;99.90
3194;DHT22;1608;50.860;13.466;2023-03-15T13:51:50;7.90;99.90
3194;DHT22;1608;50.860;13.466;2023-03-15T13:54:23;8.00;99.90
3194;DHT22;1608;50.860;13.466;2023-03-15T13:56:59;8.00;99.90
3194;DHT22;1608;50.860;13.466;2023-03-15T13:59:33;8.00;99.90
3194;DHT22;1608;50.860;13.466;2023-03-15T14:02:03;8.00;99.90
3194;DHT22;1608;50.860;13.466;2023-03-15T14:04:33;8.00;99.90
3194;DHT22;1608;50.860;13.466;2023-03-15T14:07:14;8.00;99.90
3194;DHT22;1608;50.860;13.466;2023-03-15T14:09:44;8.00;99.90
3194;DHT22;1608;50.860;13.466;2023-03-15T14:12:17;8.00;99.90
3194;DHT22;1608;50.860;13.466;2023-03-15T14:14:50;8.20;99.90
3194;DHT22;1608;50.860;13.466;2023-03-15T14:17:23;8.30;99.90
3194;DHT22;1608;50.860;13.466;2023-03-15T14:19:54;8.50;99.90
3194;DHT22;1608;50.860;13.466;2023-03-15T14:22:21;8.50;99.90
3194;DHT22;1608;50.860;13.466;2023-03-15T14:24:50;8.50;99.90
3194;DHT22;1608;50.860;13.466;2023-03-15T14:27:20;8.30;99.90
3194;DHT22;1608;50.860;13.466;2023-03-15T14:29:50;8.30;99.90
3194;DHT22;1608;50.860;13.466;2023-03-15T14:32:25;8.20;99.90
3194;DHT22;1608;50.860;13.466;2023-03-15T14:34:59;8.20;99.90
3194;DHT22;1608;50.860;13.466;2023-03-15T14:37:30;8.40;99.90
3194;DHT22;1608;50.860;13.466;2023-03-15T14:42:46;8.70;99.90
3194;DHT22;1608;50.860;13.466;2023-03-15T14:45:16;8.70;99.90
3194;DHT22;1608;50.860;13.466;2023-03-15T14:47:46;8.70;99.90
3194;DHT22;1608;50.860;13.466;2023-03-15T14:50:16;8.60;99.90
3194;DHT22;1608;50.860;13.466;2023-03-15T14:52:45;8.40;99.90
3194;DHT22;1608;50.860;13.466;2023-03-15T14:55:14;8.30;99.90
3194;DHT22;1608;50.860;13.466;2023-03-15T14:57:41;8.10;99.90
3194;DHT22;1608;50.860;13.466;2023-03-15T15:00:12;8.80;99.90
3194;DHT22;1608;50.860;13.466;2023-03-15T15:02:43;7.80;99.90
3194;DHT22;1608;50.860;13.466;2023-03-15T15:05:19;7.80;99.90
3194;DHT22;1608;50.860;13.466;2023-03-15T15:07:47;7.60;99.90
3194;DHT22;1608;50.860;13.466;2023-03-15T15:10:14;7.50;99.90
3194;DHT22;1608;50.860;13.466;2023-03-15T15:12:41;7.30;99.90
3194;DHT22;1608;50.860;13.466;2023-03-15T15:15:16;7.10;99.90
3194;DHT22;1608;50.860;13.466;2023-03-15T15:17:45;7.10;99.90
3194;DHT22;1608;50.860;13.466;2023-03-15T15:20:12;7.20;99.90
3194;DHT22;1608;50.860;13.466;2023-03-15T15:22:40;7.40;99.90
3194;DHT22;1608;50.860;13.466;2023-03-15T15:25:18;7.60;99.90
3194;DHT22;1608;50.860;13.466;2023-03-15T15:27:45;7.80;99.90
3194;DHT22;1608;50.860;13.466;2023-03-15T15:30:15;7.90;99.90
3194;DHT22;1608;50.860;13.466;2023-03-15T15:32:44;7.90;99.90
3194;DHT22;1608;50.860;13.466;2023-03-15T15:35:11;7.90;99.90
3194;DHT22;1608;50.860;13.466;2023-03-15T15:37:38;7.80;99.90
3194;DHT22;1608;50.860;13.466;2023-03-15T15:40:09;7.80;99.90
3194;DHT22;1608;50.860;13.466;2023-03-15T15:42:37;7.70;99.90
3194;DHT22;1608;50.860;13.466;2023-03-15T15:45:09;7.70;99.90
3194;DHT22;1608;50.860;13.466;2023-03-15T15:47:36;7.70;99.90
3194;DHT22;1608;50.860;13.466;2023-03-15T15:50:05;7.80;99.90
3194;DHT22;1608;50.860;13.466;2023-03-15T15:52:32;7.60;99.90
3194;DHT22;1608;50.860;13.466;2023-03-15T15:54:59;7.60;99.90
3194;DHT22;1608;50.860;13.466;2023-03-15T15:57:27;7.40;99.90
3194;DHT22;1608;50.860;13.466;2023-03-15T15:59:54;7.30;99.90
3194;DHT22;1608;50.860;13.466;2023-03-15T16:02:21;7.20;99.90
3194;DHT22;1608;50.860;13.466;2023-03-15T16:04:48;7.00;99.90
3194;DHT22;1608;50.860;13.466;2023-03-15T16:07:16;7.00;99.90
3194;DHT22;1608;50.860;13.466;2023-03-15T16:09:44;6.90;99.90
3194;DHT22;1608;50.860;13.466;2023-03-15T16:12:14;7.10;99.90
3194;DHT22;1608;50.860;13.466;2023-03-15T16:14:42;7.30;99.90
3194;DHT22;1608;50.860;13.466;2023-03-15T16:17:10;7.30;99.90
3194;DHT22;1608;50.860;13.466;2023-03-15T16:19:37;7.20;99.90
3194;DHT22;1608;50.860;13.466;2023-03-15T16:22:06;7.00;99.90